This is the latest recevied weather packets stored in our database for station/object W0VI. If no packets are shown the sender has not sent any weather packets the latest 1 day(s).
| Time | Temp. | Humidity | Pressure | Rain* | Wind** | Luminosity | Snow |
|---|---|---|---|---|---|---|---|
| 1777983168 | 3.33° C | 57% | 1009.4 hPa | 0 mm | 3.58 m/s, 301° | 55 W/m² | - |
| 1777982864 | 3.33° C | 58% | 1009.4 hPa | 0 mm | 0.89 m/s, 330° | 47 W/m² | - |
| 1777982560 | 2.78° C | 60% | 1009.5 hPa | 0 mm | 0.89 m/s, 345° | 32 W/m² | - |
| 1777982259 | 2.78° C | 63% | 1009.4 hPa | 0 mm | 0.45 m/s, 21° | 37 W/m² | - |
| 1777981957 | 2.78° C | 64% | 1009.4 hPa | 0 mm | 0.89 m/s, 324° | 27 W/m² | - |
| 1777981654 | 2.22° C | 65% | 1009.4 hPa | 0 mm | 0.89 m/s, 300° | 24 W/m² | - |
| 1777981359 | 2.22° C | 66% | 1009.1 hPa | 0 mm | 1.34 m/s, 339° | 23 W/m² | - |
| 1777981047 | 2.22° C | 67% | 1008.9 hPa | 0 mm | 0.45 m/s, 315° | 20 W/m² | - |
| 1777980743 | 2.22° C | 69% | 1009.1 hPa | 0 mm | 2.24 m/s, 274° | 18 W/m² | - |
| 1777980439 | 2.22° C | 70% | 1008.9 hPa | 0 mm | 1.34 m/s, 328° | 15 W/m² | - |
| 1777980138 | 2.22° C | 70% | 1008.9 hPa | 0 mm | 0.89 m/s, 308° | 12 W/m² | - |
| 1777979837 | 2.22° C | 71% | 1008.7 hPa | 0 mm | 1.34 m/s, 283° | 10 W/m² | - |
| 1777979533 | 2.22° C | 71% | 1008.9 hPa | 0 mm | 0.45 m/s, 343° | 8 W/m² | - |
| 1777979229 | 2.22° C | 71% | 1008.6 hPa | 0 mm | 0.45 m/s, 291° | 5 W/m² | - |
| 1777978927 | 2.22° C | 70% | 1008.5 hPa | 0 mm | 0.45 m/s, 322° | 3 W/m² | - |
| 1777978623 | 2.22° C | 70% | 1008.7 hPa | 0 mm | 1.34 m/s, 308° | 2 W/m² | - |
| 1777978319 | 2.22° C | 71% | 1008.9 hPa | 0 mm | 0.89 m/s, 290° | 0 W/m² | - |
| 1777978016 | 2.22° C | 71% | 1008.4 hPa | 0 mm | 1.34 m/s, 289° | 0 W/m² | - |
| 1777977713 | 2.22° C | 71% | 1008.5 hPa | 0 mm | 1.34 m/s, 317° | 0 W/m² | - |
| 1777977409 | 2.22° C | 71% | 1008.5 hPa | 0 mm | 1.79 m/s, 286° | 0 W/m² | - |
| 1777977108 | 2.22° C | 71% | 1008.4 hPa | 0 mm | 0.89 m/s, 327° | 0 W/m² | - |
| 1777976805 | 2.78° C | 71% | 1008.4 hPa | 0 mm | 1.34 m/s, 299° | 0 W/m² | - |
| 1777976502 | 2.78° C | 71% | 1008.3 hPa | 0 mm | 1.34 m/s, 297° | 0 W/m² | - |
| 1777976201 | 2.22° C | 71% | 1008.5 hPa | 0 mm | 1.79 m/s, 326° | 0 W/m² | - |
| 1777975897 | 2.78° C | 71% | 1008.2 hPa | 0 mm | 0.89 m/s, 330° | 0 W/m² | - |
* Rain latest hour (hover to see other rain measurements)
** Current wind speed in m/s (hover to see current wind gust speed)